createdAt,value
2019-05-21T00:00:11.342Z,74.93
2019-05-21T00:01:11.458Z,55.91
2019-05-21T00:02:11.582Z,57.36
2019-05-21T00:03:11.834Z,56.88
2019-05-21T00:04:27.150Z,75.25
2019-05-21T00:05:13.125Z,52.37
2019-05-21T00:06:12.346Z,55.91
2019-05-21T00:07:12.483Z,52.37
2019-05-21T00:08:13.646Z,65.10
2019-05-21T00:09:12.890Z,87.82
2019-05-21T00:10:13.545Z,58.81
2019-05-21T00:11:13.170Z,75.09
2019-05-21T00:12:34.944Z,57.52
2019-05-21T00:13:14.036Z,58.01
2019-05-21T00:14:13.783Z,59.30
2019-05-21T00:15:13.946Z,67.51
2019-05-21T00:16:14.087Z,56.40
2019-05-21T00:17:14.228Z,53.01
2019-05-21T00:18:14.385Z,72.83
2019-05-21T00:19:15.029Z,55.27
2019-05-21T00:20:14.758Z,73.32
2019-05-21T00:21:14.891Z,59.46
2019-05-21T00:22:16.031Z,55.27
2019-05-21T00:23:15.284Z,55.27
2019-05-21T00:24:16.027Z,57.69
2019-05-21T00:25:17.315Z,62.84
2019-05-21T00:26:16.804Z,59.94
2019-05-21T00:27:15.926Z,59.14
2019-05-21T00:28:16.071Z,60.42
2019-05-21T00:29:16.202Z,59.62
2019-05-21T00:30:16.368Z,60.26
2019-05-21T00:31:16.587Z,61.87
2019-05-21T00:32:16.711Z,58.81
2019-05-21T00:33:16.883Z,65.10
2019-05-21T00:34:17.053Z,78.96
2019-05-21T00:35:17.274Z,59.46
2019-05-21T00:36:17.465Z,77.83
2019-05-21T00:37:17.656Z,59.62
2019-05-21T00:38:17.842Z,61.55
2019-05-21T00:39:17.990Z,60.59
2019-05-21T00:40:18.126Z,72.19
2019-05-21T00:41:18.553Z,64.61
2019-05-21T00:42:19.057Z,72.35
2019-05-21T00:43:18.690Z,67.19
2019-05-21T00:44:18.844Z,65.42
2019-05-21T00:45:19.038Z,72.99
2019-05-21T00:46:19.234Z,69.77
2019-05-21T00:47:19.426Z,61.71
2019-05-21T00:48:19.589Z,73.48
2019-05-21T00:49:19.821Z,60.91
2019-05-21T00:50:20.561Z,71.38
2019-05-21T00:51:20.262Z,60.42
2019-05-21T00:52:21.031Z,75.41
2019-05-21T00:53:20.583Z,65.58
2019-05-21T00:54:20.768Z,76.22
2019-05-21T00:55:21.599Z,73.64
2019-05-21T00:56:21.140Z,60.10
2019-05-21T00:57:22.055Z,67.68
2019-05-21T00:58:21.482Z,70.58
2019-05-21T00:59:22.573Z,60.75
2019-05-21T01:00:21.845Z,63.81
2019-05-21T01:01:22.550Z,71.54
2019-05-21T01:02:23.072Z,62.20
2019-05-21T01:03:22.354Z,60.59
2019-05-21T01:04:22.512Z,78.31
2019-05-21T01:05:22.670Z,64.45
2019-05-21T01:06:22.810Z,59.46
2019-05-21T01:07:23.005Z,61.55
2019-05-21T01:08:23.161Z,62.20
2019-05-21T01:09:24.067Z,70.74
2019-05-21T01:10:23.449Z,60.59
2019-05-21T01:11:23.610Z,80.24
2019-05-21T01:12:23.734Z,59.46
2019-05-21T01:13:23.911Z,71.54
2019-05-21T01:14:24.066Z,75.73
2019-05-21T01:15:25.047Z,67.68
2019-05-21T01:16:24.432Z,73.15
2019-05-21T01:17:24.576Z,73.15
2019-05-21T01:18:25.053Z,62.52
2019-05-21T01:19:24.938Z,79.60
2019-05-21T01:20:25.087Z,59.62
2019-05-21T01:21:25.223Z,80.24
2019-05-21T01:22:25.418Z,59.94
2019-05-21T01:23:25.594Z,61.71
2019-05-21T01:24:25.740Z,62.20
2019-05-21T01:25:25.883Z,59.94
2019-05-21T01:26:26.053Z,60.42
2019-05-21T01:27:26.270Z,65.42
2019-05-21T01:28:26.574Z,60.26
2019-05-21T01:29:26.587Z,60.75
2019-05-21T01:30:26.767Z,61.39
2019-05-21T01:31:26.918Z,61.07
2019-05-21T01:32:27.081Z,77.02
2019-05-21T01:33:27.252Z,60.26
2019-05-21T01:34:27.394Z,58.81
2019-05-21T01:35:27.553Z,59.46
2019-05-21T01:36:27.713Z,79.28
2019-05-21T01:37:27.876Z,65.42
2019-05-21T01:38:28.014Z,59.46
2019-05-21T01:39:28.259Z,58.65
2019-05-21T01:40:28.565Z,75.25
2019-05-21T01:41:28.556Z,59.78
2019-05-21T01:42:28.698Z,61.55
2019-05-21T01:43:28.841Z,59.30
2019-05-21T01:44:29.007Z,59.14
2019-05-21T01:45:29.188Z,59.62
2019-05-21T01:46:29.558Z,59.94
2019-05-21T01:47:29.525Z,72.99
2019-05-21T01:48:29.782Z,72.67
2019-05-21T01:49:30.024Z,58.17
2019-05-21T01:50:30.150Z,63.00
2019-05-21T01:51:30.573Z,74.77
2019-05-21T01:52:30.408Z,63.00
2019-05-21T01:53:30.655Z,63.16
2019-05-21T01:54:30.772Z,62.04
2019-05-21T01:55:31.577Z,64.13
2019-05-21T01:56:31.558Z,76.70
2019-05-21T01:57:31.406Z,73.64
2019-05-21T01:58:31.663Z,64.29
2019-05-21T01:59:32.570Z,60.26
2019-05-21T02:00:31.942Z,61.87
2019-05-21T02:01:32.081Z,60.91
2019-05-21T02:02:32.197Z,61.55
2019-05-21T02:03:32.428Z,75.73
2019-05-21T02:04:32.675Z,60.75
2019-05-21T02:05:33.617Z,64.45
2019-05-21T02:06:33.980Z,73.80
2019-05-21T02:07:33.195Z,75.25
2019-05-21T02:08:33.312Z,73.96
2019-05-21T02:09:33.561Z,76.22
2019-05-21T02:10:33.701Z,76.05
2019-05-21T02:11:34.069Z,61.55
2019-05-21T02:12:34.043Z,77.83
2019-05-21T02:13:34.288Z,75.25
2019-05-21T02:14:34.424Z,62.20
2019-05-21T02:15:35.062Z,70.42
2019-05-21T02:16:35.077Z,78.79
2019-05-21T02:17:34.961Z,75.73
2019-05-21T02:18:35.112Z,82.34
2019-05-21T02:19:35.263Z,69.29
2019-05-21T02:20:35.399Z,73.64
2019-05-21T02:21:35.561Z,78.96
2019-05-21T02:22:35.713Z,75.73
2019-05-21T02:23:35.840Z,67.51
2019-05-21T02:24:35.938Z,72.83
2019-05-21T02:25:37.076Z,79.28
2019-05-21T02:26:36.336Z,75.09
2019-05-21T02:27:36.480Z,63.97
2019-05-21T02:28:36.627Z,77.99
2019-05-21T02:29:36.745Z,64.78
2019-05-21T02:30:36.871Z,64.61
2019-05-21T02:31:37.013Z,65.58
2019-05-21T02:32:37.282Z,67.03
2019-05-21T02:33:37.414Z,71.22
2019-05-21T02:34:37.551Z,64.45
2019-05-21T02:35:52.733Z,74.60
2019-05-21T02:36:39.887Z,69.45
2019-05-21T02:37:38.102Z,77.18
2019-05-21T02:38:38.283Z,79.76
2019-05-21T02:39:39.067Z,68.96
2019-05-21T02:40:38.699Z,76.05
2019-05-21T02:41:38.868Z,74.12
2019-05-21T02:42:39.039Z,78.47
2019-05-21T02:43:39.211Z,78.47
2019-05-21T02:44:39.362Z,76.05
2019-05-21T02:45:39.512Z,78.47
2019-05-21T02:46:39.658Z,77.83
2019-05-21T02:47:39.839Z,81.37
2019-05-21T02:48:39.974Z,76.22
2019-05-21T02:49:40.116Z,77.67
2019-05-21T02:50:40.257Z,81.05
2019-05-21T02:51:40.405Z,77.67
2019-05-21T02:52:40.564Z,74.93
2019-05-21T02:53:40.696Z,78.96
2019-05-21T02:54:41.993Z,65.26
2019-05-21T02:55:42.141Z,75.41
2019-05-21T02:56:41.262Z,78.79
2019-05-21T02:57:41.480Z,78.96
2019-05-21T02:58:42.570Z,78.63
2019-05-21T02:59:41.863Z,77.34
2019-05-21T03:00:42.037Z,77.50
2019-05-21T03:01:42.179Z,80.57
2019-05-21T03:02:42.340Z,80.08
2019-05-21T03:03:42.496Z,75.73
2019-05-21T03:04:43.571Z,80.41
2019-05-21T03:05:43.571Z,80.24
2019-05-21T03:06:42.936Z,77.18
2019-05-21T03:07:43.053Z,80.89
2019-05-21T03:08:43.190Z,80.57
2019-05-21T03:09:44.086Z,85.24
2019-05-21T03:10:43.588Z,79.92
2019-05-21T03:11:44.584Z,78.47
2019-05-21T03:12:43.964Z,81.53
2019-05-21T03:13:44.126Z,78.63
2019-05-21T03:14:44.278Z,79.76
2019-05-21T03:15:44.420Z,84.59
2019-05-21T03:16:44.554Z,82.02
2019-05-21T03:17:44.733Z,79.60
2019-05-21T03:18:44.909Z,79.60
2019-05-21T03:19:45.623Z,77.83
2019-05-21T03:20:45.225Z,80.24
2019-05-21T03:21:45.366Z,80.24
2019-05-21T03:22:45.512Z,80.73
2019-05-21T03:23:45.637Z,82.50
2019-05-21T03:24:46.586Z,77.18
2019-05-21T03:25:45.939Z,79.76
2019-05-21T03:26:46.064Z,82.02
2019-05-21T03:27:46.181Z,81.69
2019-05-21T03:28:46.332Z,79.12
2019-05-21T03:29:46.460Z,90.72
2019-05-21T03:30:46.622Z,83.31
2019-05-21T03:31:46.763Z,83.63
2019-05-21T03:32:46.914Z,83.63
2019-05-21T03:33:47.054Z,81.69
2019-05-21T03:34:49.108Z,81.21
2019-05-21T03:35:47.596Z,82.02
2019-05-21T03:36:47.485Z,82.98
2019-05-21T03:37:47.671Z,85.72
2019-05-21T03:38:47.825Z,82.18
2019-05-21T03:39:47.963Z,82.98
2019-05-21T03:40:49.112Z,82.98
2019-05-21T03:41:49.245Z,83.31
2019-05-21T03:42:48.379Z,83.63
2019-05-21T03:43:48.547Z,82.82
2019-05-21T03:44:59.518Z,83.47
2019-05-21T03:45:50.916Z,80.57
2019-05-21T03:46:49.601Z,84.76
2019-05-21T03:47:49.369Z,81.53
2019-05-21T03:48:49.514Z,83.63
2019-05-21T03:49:49.695Z,84.92
2019-05-21T03:50:49.885Z,86.04
2019-05-21T03:51:50.098Z,83.63
2019-05-21T03:52:50.235Z,81.69
2019-05-21T03:53:50.384Z,80.89
2019-05-21T03:54:50.604Z,81.21
2019-05-21T03:55:50.786Z,83.47
2019-05-21T03:56:50.918Z,80.73
2019-05-21T03:57:52.589Z,84.59
2019-05-21T03:58:51.190Z,83.31
2019-05-21T03:59:52.099Z,81.69
2019-05-21T04:00:52.462Z,82.02
2019-05-21T04:01:51.671Z,81.05
2019-05-21T04:02:51.783Z,82.66
2019-05-21T04:03:52.017Z,82.34
2019-05-21T04:04:52.173Z,81.37
2019-05-21T04:05:53.077Z,81.05
2019-05-21T04:06:52.826Z,82.02
2019-05-21T04:07:54.584Z,82.18
2019-05-21T04:08:52.806Z,83.79
2019-05-21T04:09:52.935Z,82.02
2019-05-21T04:10:53.580Z,83.95
2019-05-21T04:11:53.611Z,82.50
2019-05-21T04:12:54.083Z,82.34
2019-05-21T04:13:53.564Z,82.02
2019-05-21T04:14:53.703Z,83.79
2019-05-21T04:15:53.943Z,83.79
2019-05-21T04:16:54.101Z,81.69
2019-05-21T04:17:54.267Z,83.31
2019-05-21T04:18:54.422Z,81.05
2019-05-21T04:19:54.549Z,83.63
2019-05-21T04:20:54.734Z,85.56
2019-05-21T04:21:54.886Z,83.79
2019-05-21T04:22:55.037Z,84.27
2019-05-21T04:23:56.085Z,84.92
2019-05-21T04:24:56.439Z,81.53
2019-05-21T04:25:56.124Z,83.47
2019-05-21T04:26:55.870Z,81.69
2019-05-21T04:27:56.024Z,83.47
2019-05-21T04:28:56.166Z,85.56
2019-05-21T04:29:56.329Z,82.18
2019-05-21T04:30:56.488Z,84.11
2019-05-21T04:31:56.629Z,84.59
2019-05-21T04:32:57.605Z,82.18
2019-05-21T04:33:57.115Z,85.24
2019-05-21T04:34:57.129Z,82.18
2019-05-21T04:35:57.257Z,85.08
2019-05-21T04:37:09.733Z,82.50
2019-05-21T04:37:59.631Z,83.31
2019-05-21T04:38:57.732Z,85.40
2019-05-21T04:39:57.860Z,83.95
2019-05-21T04:40:58.028Z,83.47
2019-05-21T04:41:58.183Z,82.50
2019-05-21T04:43:01.892Z,82.18
2019-05-21T04:43:59.518Z,82.66
2019-05-21T04:44:59.117Z,82.18
2019-05-21T04:45:58.859Z,85.56
2019-05-21T04:46:59.593Z,82.18
2019-05-21T04:48:00.111Z,82.34
2019-05-21T04:48:59.379Z,83.31
2019-05-21T04:49:59.570Z,85.56
2019-05-21T04:51:00.610Z,82.66
2019-05-21T04:51:59.838Z,84.43
2019-05-21T04:52:59.979Z,83.63
2019-05-21T04:54:00.115Z,81.53
2019-05-21T04:55:00.291Z,82.98
2019-05-21T04:56:00.461Z,85.24
2019-05-21T04:57:00.640Z,83.47
2019-05-21T04:58:01.603Z,86.85
2019-05-21T04:59:00.970Z,82.18
2019-05-21T05:00:02.123Z,82.82
2019-05-21T05:01:01.299Z,84.27
2019-05-21T05:02:01.465Z,84.76
2019-05-21T05:03:01.593Z,84.43
2019-05-21T05:04:01.735Z,84.92
2019-05-21T05:05:01.872Z,83.95
2019-05-21T05:06:02.044Z,83.63
2019-05-21T05:07:02.185Z,84.59
2019-05-21T05:08:02.358Z,83.95
2019-05-21T05:09:02.537Z,83.95
2019-05-21T05:10:02.699Z,82.02
2019-05-21T05:11:02.887Z,82.02
2019-05-21T05:12:03.073Z,84.76
2019-05-21T05:13:04.098Z,83.79
2019-05-21T05:14:03.332Z,84.27
2019-05-21T05:15:03.469Z,86.04
2019-05-21T05:16:04.435Z,82.50
2019-05-21T05:17:05.129Z,82.82
2019-05-21T05:18:03.967Z,83.47
2019-05-21T05:19:04.091Z,84.59
2019-05-21T05:20:04.245Z,82.34
2019-05-21T05:21:04.388Z,82.82
2019-05-21T05:22:05.145Z,83.14
2019-05-21T05:23:04.672Z,82.66
2019-05-21T05:24:04.801Z,83.95
2019-05-21T05:25:04.931Z,82.98
2019-05-21T05:26:05.131Z,83.31
2019-05-21T05:27:05.665Z,81.69
2019-05-21T05:28:06.109Z,80.89
2019-05-21T05:29:05.620Z,82.02
2019-05-21T05:30:05.797Z,83.79
2019-05-21T05:31:06.620Z,85.24
2019-05-21T05:32:06.159Z,83.63
2019-05-21T05:33:06.358Z,83.31
2019-05-21T05:34:07.108Z,83.63
2019-05-21T05:35:06.736Z,82.50
2019-05-21T05:36:06.894Z,82.02
2019-05-21T05:37:07.633Z,82.98
2019-05-21T05:38:07.272Z,83.95
2019-05-21T05:39:07.443Z,87.01
2019-05-21T05:40:07.586Z,82.98
2019-05-21T05:41:07.743Z,81.69
2019-05-21T05:42:07.923Z,82.02
2019-05-21T05:43:08.111Z,80.41
2019-05-21T05:44:08.251Z,83.95
2019-05-21T05:45:08.426Z,86.21
2019-05-21T05:46:08.565Z,84.76
2019-05-21T05:47:08.747Z,82.50
2019-05-21T05:48:08.918Z,81.37
2019-05-21T05:49:09.636Z,91.85
2019-05-21T05:50:09.302Z,82.98
2019-05-21T05:51:09.484Z,80.08
2019-05-21T05:52:09.639Z,80.41
2019-05-21T05:53:09.785Z,83.63
2019-05-21T05:54:09.930Z,86.69
2019-05-21T05:55:10.088Z,84.76
2019-05-21T05:56:10.245Z,79.12
2019-05-21T05:57:10.386Z,81.05
2019-05-21T05:58:10.576Z,80.57
2019-05-21T05:59:14.289Z,84.27
2019-05-21T06:00:11.932Z,80.24
2019-05-21T06:01:11.062Z,84.11
2019-05-21T06:02:11.227Z,81.21
2019-05-21T06:03:11.394Z,83.63
2019-05-21T06:04:11.583Z,82.02
2019-05-21T06:05:11.744Z,82.02
2019-05-21T06:06:11.878Z,81.69
2019-05-21T06:07:12.617Z,81.21
2019-05-21T06:08:12.189Z,81.86
2019-05-21T06:09:12.344Z,79.60
2019-05-21T06:10:12.518Z,80.08
2019-05-21T06:11:12.680Z,84.92
2019-05-21T06:12:12.842Z,84.76
2019-05-21T06:13:12.994Z,84.76
2019-05-21T06:14:13.147Z,81.37
2019-05-21T06:15:14.132Z,84.59
2019-05-21T06:16:13.515Z,80.08
2019-05-21T06:17:13.679Z,85.56
2019-05-21T06:18:13.845Z,83.95
2019-05-21T06:19:14.037Z,82.50
2019-05-21T06:20:14.154Z,84.11
2019-05-21T06:21:14.295Z,87.66
2019-05-21T06:22:14.431Z,85.08
2019-05-21T06:23:15.123Z,84.59
2019-05-21T06:24:14.801Z,83.14
2019-05-21T06:25:14.963Z,83.14
2019-05-21T06:26:15.117Z,84.43
2019-05-21T06:27:15.250Z,84.11
2019-05-21T06:28:15.397Z,111.50
2019-05-21T06:29:15.572Z,84.59
2019-05-21T06:30:15.743Z,85.40
2019-05-21T06:31:15.895Z,87.98
2019-05-21T06:32:16.042Z,84.27
2019-05-21T06:33:17.199Z,84.59
2019-05-21T06:34:17.123Z,83.47
2019-05-21T06:35:16.497Z,82.98
2019-05-21T06:36:17.625Z,84.59
2019-05-21T06:37:16.882Z,82.02
2019-05-21T06:38:18.365Z,83.14
2019-05-21T06:39:19.126Z,83.31
2019-05-21T06:40:17.631Z,85.40
2019-05-21T06:41:17.512Z,86.04
2019-05-21T06:42:17.643Z,85.56
2019-05-21T06:43:17.817Z,82.98
2019-05-21T06:44:17.984Z,83.14
2019-05-21T06:45:18.118Z,82.98
2019-05-21T06:46:18.255Z,83.31
2019-05-21T06:47:18.383Z,82.34
2019-05-21T06:48:18.504Z,83.63
2019-05-21T06:49:18.704Z,84.43
2019-05-21T06:50:18.912Z,86.04
2019-05-21T06:51:19.126Z,86.04
2019-05-21T06:52:19.316Z,85.72
2019-05-21T06:53:19.455Z,84.92
2019-05-21T06:54:19.591Z,86.21
2019-05-21T06:55:20.136Z,85.08
2019-05-21T06:56:19.917Z,84.43
2019-05-21T06:57:20.030Z,84.59
2019-05-21T06:58:21.192Z,83.31
2019-05-21T06:59:20.322Z,82.50
2019-05-21T07:00:20.464Z,82.98
2019-05-21T07:01:27.646Z,82.98
2019-05-21T07:02:23.140Z,82.34
2019-05-21T07:03:20.829Z,83.47
2019-05-21T07:04:21.013Z,85.72
2019-05-21T07:05:21.171Z,80.57
2019-05-21T07:06:22.140Z,79.76
2019-05-21T07:07:21.533Z,83.14
2019-05-21T07:08:34.042Z,84.43
2019-05-21T07:09:23.839Z,83.14
2019-05-21T07:10:22.075Z,81.05
2019-05-21T07:11:22.200Z,81.21
2019-05-21T07:12:22.404Z,83.95
2019-05-21T07:13:22.450Z,80.24
2019-05-21T07:14:22.609Z,81.37
2019-05-21T07:15:23.643Z,82.50
2019-05-21T07:16:22.881Z,86.04
2019-05-21T07:17:23.057Z,81.37
2019-05-21T07:18:23.189Z,82.34
2019-05-21T07:19:23.353Z,84.11
2019-05-21T07:20:23.505Z,82.50
2019-05-21T07:21:24.635Z,81.05
2019-05-21T07:22:23.871Z,80.73
2019-05-21T07:23:24.062Z,84.59
2019-05-21T07:24:28.072Z,81.86
2019-05-21T07:25:24.390Z,82.18
2019-05-21T07:26:24.591Z,81.05
2019-05-21T07:27:24.793Z,80.73
2019-05-21T07:28:24.962Z,82.02
2019-05-21T07:29:25.117Z,82.98
2019-05-21T07:30:25.275Z,81.21
2019-05-21T07:31:25.409Z,81.37
2019-05-21T07:32:25.579Z,82.50
2019-05-21T07:33:26.150Z,86.04
2019-05-21T07:34:25.900Z,81.37
2019-05-21T07:35:26.051Z,88.14
2019-05-21T07:36:26.188Z,81.53
2019-05-21T07:37:26.345Z,83.14
2019-05-21T07:38:26.536Z,83.14
2019-05-21T07:39:26.689Z,82.34
2019-05-21T07:40:26.862Z,88.95
2019-05-21T07:41:27.011Z,81.86
2019-05-21T07:42:27.189Z,84.92
2019-05-21T07:43:27.663Z,80.41
2019-05-21T07:44:27.572Z,81.21
2019-05-21T07:45:28.157Z,82.18
2019-05-21T07:46:27.919Z,80.41
2019-05-21T07:47:28.065Z,83.47
2019-05-21T07:48:28.193Z,84.92
2019-05-21T07:49:28.362Z,81.69
2019-05-21T07:50:28.493Z,79.92
2019-05-21T07:51:28.627Z,79.60
2019-05-21T07:52:28.752Z,81.69
2019-05-21T07:53:28.999Z,82.18
2019-05-21T07:54:29.675Z,79.60
2019-05-21T07:55:29.303Z,81.53
2019-05-21T07:56:30.139Z,85.08
2019-05-21T07:57:29.647Z,78.96
2019-05-21T07:58:29.809Z,78.96
2019-05-21T07:59:29.974Z,86.21
2019-05-21T08:00:30.134Z,80.08
2019-05-21T08:01:30.258Z,84.11
2019-05-21T08:02:30.419Z,79.92
2019-05-21T08:03:30.598Z,83.63
2019-05-21T08:04:31.164Z,82.50
2019-05-21T08:05:30.919Z,82.82
2019-05-21T08:06:31.067Z,79.12
2019-05-21T08:07:32.149Z,83.31
2019-05-21T08:08:31.418Z,81.05
2019-05-21T08:09:31.594Z,80.41
2019-05-21T08:10:31.779Z,81.37
2019-05-21T08:11:32.650Z,80.89
2019-05-21T08:12:39.037Z,83.47
2019-05-21T08:13:34.388Z,78.79
2019-05-21T08:14:32.585Z,82.66
2019-05-21T08:15:32.772Z,83.79
2019-05-21T08:16:33.169Z,82.34
2019-05-21T08:17:33.063Z,78.63
2019-05-21T08:18:33.224Z,83.47
2019-05-21T08:19:33.369Z,81.05
2019-05-21T08:20:34.159Z,81.21
2019-05-21T08:21:34.164Z,81.21
2019-05-21T08:22:34.818Z,79.60
2019-05-21T08:23:34.068Z,80.41
2019-05-21T08:24:34.222Z,82.66
2019-05-21T08:25:35.157Z,81.86
2019-05-21T08:26:34.656Z,78.31
2019-05-21T08:27:34.698Z,81.21
2019-05-21T08:28:35.667Z,80.89
2019-05-21T08:29:35.047Z,80.24
2019-05-21T08:31:08.598Z,78.79
2019-05-21T08:31:35.339Z,76.22
2019-05-21T08:32:36.166Z,81.37
2019-05-21T08:33:35.646Z,82.34
2019-05-21T08:34:35.790Z,79.28
2019-05-21T08:35:35.908Z,81.86
2019-05-21T08:36:36.078Z,79.60
2019-05-21T08:37:36.220Z,82.02
2019-05-21T08:38:36.368Z,82.18
2019-05-21T08:39:36.517Z,80.08
2019-05-21T08:40:36.691Z,81.21
2019-05-21T08:41:36.877Z,80.57
2019-05-21T08:42:37.038Z,83.63
2019-05-21T08:43:37.177Z,82.98
2019-05-21T08:44:37.332Z,80.08
2019-05-21T08:45:37.480Z,79.12
2019-05-21T08:46:37.665Z,80.08
2019-05-21T08:47:37.855Z,84.43
2019-05-21T08:48:38.021Z,79.44
2019-05-21T08:49:38.170Z,82.34
2019-05-21T08:50:38.337Z,79.28
2019-05-21T08:51:38.619Z,82.18
2019-05-21T08:52:38.780Z,80.73
2019-05-21T08:53:38.956Z,79.76
2019-05-21T08:54:39.100Z,83.95
2019-05-21T08:55:40.168Z,82.02
2019-05-21T08:56:39.732Z,82.66
2019-05-21T08:57:39.624Z,80.08
2019-05-21T08:58:39.765Z,81.86
2019-05-21T08:59:39.928Z,81.53
2019-05-21T09:00:40.098Z,79.92
2019-05-21T09:01:40.251Z,78.63
2019-05-21T09:02:40.429Z,78.15
2019-05-21T09:03:40.594Z,77.99
2019-05-21T09:04:46.480Z,80.89
2019-05-21T09:05:42.979Z,80.73
2019-05-21T09:06:41.224Z,77.50
2019-05-21T09:07:41.406Z,80.73
2019-05-21T09:08:41.551Z,83.47
2019-05-21T09:09:50.270Z,77.99
2019-05-21T09:10:43.796Z,79.12
2019-05-21T09:11:42.016Z,79.60
2019-05-21T09:12:42.164Z,80.24
2019-05-21T09:13:43.173Z,81.21
2019-05-21T09:14:42.412Z,82.50
2019-05-21T09:15:42.568Z,79.28
2019-05-21T09:16:42.707Z,79.44
2019-05-21T09:17:42.852Z,80.57
2019-05-21T09:18:43.749Z,82.66
2019-05-21T09:19:43.165Z,82.82
2019-05-21T09:20:43.299Z,81.05
2019-05-21T09:21:43.443Z,79.28
2019-05-21T09:22:43.599Z,84.92
2019-05-21T09:23:43.725Z,79.92
2019-05-21T09:24:44.002Z,80.57
2019-05-21T09:25:44.681Z,80.73
2019-05-21T09:26:44.298Z,80.41
2019-05-21T09:27:44.410Z,80.57
2019-05-21T09:28:44.528Z,78.63
2019-05-21T09:29:44.800Z,79.92
2019-05-21T09:30:44.947Z,78.31
2019-05-21T09:31:45.680Z,78.31
2019-05-21T09:32:46.184Z,82.18
2019-05-21T09:33:45.528Z,81.53
2019-05-21T09:34:49.267Z,77.99
2019-05-21T09:35:46.860Z,77.83
2019-05-21T09:36:46.092Z,79.60
2019-05-21T09:37:46.212Z,80.24
2019-05-21T09:38:47.717Z,80.57
2019-05-21T09:39:46.565Z,81.37
2019-05-21T09:40:46.714Z,78.79
2019-05-21T09:41:46.862Z,81.37
2019-05-21T09:42:47.686Z,79.44
2019-05-21T09:43:47.713Z,81.86
2019-05-21T09:44:47.332Z,81.05
2019-05-21T09:45:47.480Z,81.05
2019-05-21T09:46:47.616Z,81.37
2019-05-21T09:47:47.857Z,82.18
2019-05-21T09:48:48.038Z,80.89
2019-05-21T09:49:48.758Z,79.92
2019-05-21T09:50:48.403Z,78.63
2019-05-21T09:51:48.518Z,77.67
2019-05-21T09:52:48.675Z,84.76
2019-05-21T09:53:48.820Z,78.79
2019-05-21T09:54:48.974Z,80.57
2019-05-21T09:55:49.093Z,77.18
2019-05-21T09:56:49.234Z,82.50
2019-05-21T09:57:49.384Z,81.05
2019-05-21T09:58:49.549Z,81.86
2019-05-21T09:59:49.677Z,79.12
2019-05-21T10:00:50.701Z,78.31
2019-05-21T10:01:49.948Z,82.02
2019-05-21T10:02:51.097Z,80.57
2019-05-21T10:03:50.346Z,80.08
2019-05-21T10:04:50.504Z,80.24
2019-05-21T10:05:51.201Z,81.21
2019-05-21T10:06:51.195Z,78.96
2019-05-21T10:07:50.938Z,80.57
2019-05-21T10:08:51.687Z,80.89
2019-05-21T10:09:51.315Z,77.99
2019-05-21T10:10:51.525Z,79.76
2019-05-21T10:11:51.585Z,75.73
2019-05-21T10:12:51.767Z,79.92
2019-05-21T10:13:51.929Z,81.86
2019-05-21T10:14:52.692Z,82.50
2019-05-21T10:15:52.237Z,83.31
2019-05-21T10:16:52.438Z,80.24
2019-05-21T10:17:52.713Z,79.44
2019-05-21T10:18:52.746Z,78.96
2019-05-21T10:19:52.880Z,83.47
2019-05-21T10:20:53.681Z,78.63
2019-05-21T10:21:56.802Z,80.08
2019-05-21T10:22:53.367Z,78.79
2019-05-21T10:23:53.522Z,82.02
2019-05-21T10:24:54.214Z,77.18
2019-05-21T10:25:53.864Z,80.57
2019-05-21T10:26:54.003Z,82.02
2019-05-21T10:27:54.173Z,81.05
2019-05-21T10:28:54.326Z,79.12
2019-05-21T10:29:54.484Z,83.95
2019-05-21T10:30:54.616Z,81.37
2019-05-21T10:31:54.781Z,80.57
2019-05-21T10:32:54.966Z,79.76
2019-05-21T10:33:55.107Z,78.96
2019-05-21T10:34:56.205Z,82.02
2019-05-21T10:35:55.476Z,81.37
2019-05-21T10:36:55.627Z,80.73
2019-05-21T10:37:55.803Z,82.02
2019-05-21T10:38:55.983Z,81.86
2019-05-21T10:39:56.155Z,80.08
2019-05-21T10:40:56.320Z,80.89
2019-05-21T10:41:57.199Z,80.73
2019-05-21T10:42:56.729Z,83.47
2019-05-21T10:43:56.887Z,81.05
2019-05-21T10:44:57.057Z,79.28
2019-05-21T10:45:57.171Z,80.73
2019-05-21T10:46:57.315Z,81.86
2019-05-21T10:47:57.472Z,79.60
2019-05-21T10:48:57.653Z,80.24
2019-05-21T10:49:58.705Z,84.43
2019-05-21T10:50:57.959Z,83.95
2019-05-21T10:51:58.119Z,81.69
2019-05-21T10:52:58.287Z,83.47
2019-05-21T10:53:58.534Z,83.95
2019-05-21T10:54:58.621Z,80.73
2019-05-21T10:55:58.774Z,78.47
2019-05-21T10:56:58.962Z,80.89
2019-05-21T10:57:59.113Z,79.92
2019-05-21T10:58:59.283Z,82.50
2019-05-21T10:59:59.447Z,83.47
2019-05-21T11:00:59.567Z,81.37
2019-05-21T11:01:59.687Z,81.37
2019-05-21T11:02:59.836Z,82.98
2019-05-21T11:04:00.022Z,79.76
2019-05-21T11:05:00.163Z,85.24
2019-05-21T11:06:09.726Z,80.08
2019-05-21T11:07:02.504Z,80.57
2019-05-21T11:08:22.297Z,83.14
2019-05-21T11:09:02.902Z,81.37
2019-05-21T11:10:01.085Z,80.24
2019-05-21T11:11:01.238Z,79.76
2019-05-21T11:12:01.332Z,81.21
2019-05-21T11:13:02.216Z,83.14
2019-05-21T11:14:01.847Z,82.18
2019-05-21T11:15:01.973Z,82.18
2019-05-21T11:16:02.116Z,78.96
2019-05-21T11:17:02.241Z,80.57
2019-05-21T11:18:10.432Z,82.98
2019-05-21T11:19:04.616Z,80.24
2019-05-21T11:20:02.712Z,83.14
2019-05-21T11:21:02.830Z,81.05
2019-05-21T11:22:03.080Z,84.59
2019-05-21T11:23:03.212Z,92.65
2019-05-21T11:24:03.476Z,82.66
2019-05-21T11:25:03.528Z,78.63
2019-05-21T11:26:05.581Z,80.89
2019-05-21T11:27:04.822Z,80.41
2019-05-21T11:28:06.224Z,79.92
2019-05-21T11:29:05.211Z,79.12
2019-05-21T11:30:04.325Z,82.66
2019-05-21T11:31:04.467Z,80.57
2019-05-21T11:32:04.584Z,82.02
2019-05-21T11:33:04.732Z,81.37
2019-05-21T11:34:04.884Z,82.34
2019-05-21T11:35:05.722Z,84.59
2019-05-21T11:36:05.281Z,82.34
2019-05-21T11:37:05.437Z,80.24
2019-05-21T11:38:06.620Z,81.37
2019-05-21T11:39:05.745Z,84.11
2019-05-21T11:40:08.532Z,78.63
2019-05-21T11:41:06.729Z,83.47
2019-05-21T11:42:06.351Z,82.82
2019-05-21T11:43:06.473Z,80.41
2019-05-21T11:44:06.618Z,83.63
2019-05-21T11:45:06.795Z,78.31
2019-05-21T11:46:06.939Z,83.79
2019-05-21T11:47:08.083Z,84.43
2019-05-21T11:48:07.725Z,83.31
2019-05-21T11:49:07.461Z,79.60
2019-05-21T11:50:07.689Z,81.69
2019-05-21T11:51:07.862Z,87.33
2019-05-21T11:52:07.987Z,82.02
2019-05-21T11:53:08.729Z,78.96
2019-05-21T11:54:08.340Z,79.12
2019-05-21T11:55:08.506Z,80.89
2019-05-21T11:56:08.648Z,80.89
2019-05-21T11:57:08.772Z,80.89
2019-05-21T11:58:08.912Z,79.44
2019-05-21T11:59:09.063Z,80.89
2019-05-21T12:00:09.225Z,84.11
2019-05-21T12:01:09.374Z,79.92
2019-05-21T12:02:09.503Z,92.01
2019-05-21T12:03:10.642Z,79.60
2019-05-21T12:04:09.840Z,88.78
2019-05-21T12:05:10.736Z,81.69
2019-05-21T12:06:10.862Z,79.76
2019-05-21T12:07:10.370Z,82.18
2019-05-21T12:08:10.560Z,79.44
2019-05-21T12:09:10.714Z,79.60
2019-05-21T12:10:10.862Z,80.73
2019-05-21T12:11:11.044Z,79.44
2019-05-21T12:12:11.218Z,81.86
2019-05-21T12:13:11.752Z,80.08
2019-05-21T12:14:12.219Z,79.92
2019-05-21T12:15:11.796Z,82.66
2019-05-21T12:16:11.966Z,79.76
2019-05-21T12:17:12.196Z,79.92
2019-05-21T12:18:12.255Z,79.60
2019-05-21T12:19:12.442Z,80.89
2019-05-21T12:20:12.646Z,82.18
2019-05-21T12:21:12.844Z,79.92
2019-05-21T12:22:13.724Z,81.86
2019-05-21T12:23:13.154Z,79.12
2019-05-21T12:24:13.322Z,80.24
2019-05-21T12:25:14.218Z,79.28
2019-05-21T12:26:13.624Z,81.05
2019-05-21T12:27:13.805Z,83.79
2019-05-21T12:28:14.034Z,95.55
2019-05-21T12:29:14.229Z,81.53
2019-05-21T12:30:14.406Z,80.57
2019-05-21T12:31:14.567Z,81.21
2019-05-21T12:32:14.706Z,86.21
2019-05-21T12:33:14.856Z,78.79
2019-05-21T12:34:15.022Z,79.12
2019-05-21T12:35:15.251Z,82.34
2019-05-21T12:36:15.298Z,81.53
2019-05-21T12:37:15.462Z,78.96
2019-05-21T12:38:16.241Z,79.60
2019-05-21T12:39:15.875Z,80.73
2019-05-21T12:40:16.015Z,81.69
2019-05-21T12:41:16.142Z,80.41
2019-05-21T12:42:17.237Z,83.63
2019-05-21T12:43:16.456Z,80.57
2019-05-21T12:44:16.589Z,79.44
2019-05-21T12:45:16.699Z,81.53
2019-05-21T12:46:17.256Z,81.05
2019-05-21T12:47:17.790Z,79.12
2019-05-21T12:48:17.163Z,80.57
2019-05-21T12:49:17.323Z,78.79
2019-05-21T12:50:17.487Z,80.41
2019-05-21T12:51:17.631Z,79.44
2019-05-21T12:52:17.755Z,80.08
2019-05-21T12:53:17.879Z,79.60
2019-05-21T12:54:18.028Z,81.53